Aérodrome :
LOGIN :

S'inscrire | Disclaimer

   EN    FR    IT 

 










Légende :    VFR   VFR Marginal   IFR   IFR Intensif   IFR Très Intensif
Visi : 
Plafond : 
>= 8 km
>= 3000ft
5 à 8 km
1000 à 3000 ft
1500m à 5 km
500 à 1000 ft
800 à 1500m
200 à 500 ft
< 800m
< 200 ft
Symboles :   Orages  Brouillard  Fortes neiges  Fortes précipitations  Vent > 20 kt
SIGMETs :   Divers  Orages  Givrage  Turbulence  Onde Orograph.  Cendres Volcan.






- Altitude de l'aérodrome : 392 ft
- Code IATA : CDG


LFPG - Paris-Aeroport Charles De Gaulle

DERNIER METAR :
  • 241100Z 20013KT 170V230 9999 FEW018 BKN230 07/02 Q1001 NOSIG

METARs EXPIRÉS :
  • 241030Z 21013KT 9999 SCT016 SCT230 07/02 Q1001 NOSIG
  • 241000Z 20015KT 180V240 9999 SCT015 06/02 Q1000 NOSIG
  • 240930Z 20014G26KT 180V260 9999 BKN015 05/02 Q1000 NOSIG
  • 240900Z 21013KT 9999 BKN015 05/02 Q1000 NOSIG
  • 240830Z 21011KT 9999 BKN015 04/01 Q1000 NOSIG
  • 240800Z 21011KT 9999 FEW015 BKN016 04/02 Q0999 NOSIG
  • 240730Z 21016KT 9999 SCT013 BKN015 04/01 Q0999 TEMPO BKN012
  • 240700Z 22011KT 9999 BKN012 SCT046 04/02 Q0998 TEMPO BKN012
  • 240630Z 22013KT 9999 FEW012 BKN013 04/02 Q0998 TEMPO BKN012

TAF TAF LFPG
Valide du 24 à 06h jusqu'au 25 à 12h UTC


240500Z 2406/2512 21012KT 9999 BKN016 TX08/2414Z TN04/2406Z
PROB40
TEMPO 2406/2410 BKN012
TEMPO 2413/2420 19015G25KT BKN025TCU
PROB40
TEMPO 2417/2419 19015G35KT 1500 TSRA SCT012 BKN020CB
BECMG 2421/2423 BKN012
TEMPO 2503/2508 BKN006
ATIS : +33 1 48 62 10 92



MET'MAP, la Météo Aéronautique d'un coup d'oeil ! - Copyright ORBIFLY Décembre 2007 - Disclaimer

ORBIFLY MET'MAP TEAM :

Programmation & Développement : Alexandra Zaïnal
Sur une idée originale de : Baudouin d'Aumeries
Soutien technique & logistique : Manuel Goepfert
Assistance : Marc-Olivier Méhu




SOURCES & CREDITS :

   NOAA